Portada
METAR-TAF:

METAR-TAF

Aeropuertos :

Barkley Regional Airport

Paducah, Kentucky, Estados Unidos

latitud: 37-03-23N, longitud: 088-46-26W, altitud: 125 m

Observación

El informe se hizo hace 57 minutos, a las 19:53 UTC
Viento 7 kt del suroeste con ráfagas de 17 kt
Temperatura 17°C
Humedad 34%
Presión 1018 hPa
Visibilidad: 16.1 km
Cielo despejado

METAR: KPAH 031953Z 23007G17KT 10SM CLR 17/01 A3007 RMK AO2 SLP181 T01670006

Hora: 14:50 (20:50 UTC)

Pronóstico

El informe se hizo hace 3 horas y 30 minutos, a las 17:20 UTC
Pronóstico válido del 03 a las 18 UTC al 04 a las 18 UTC
Viento 8 kt del oeste-suroeste
Visibilidad: 10 km
Cielo despejado

TAF: KPAH 031720Z 0318/0418 24008KT P6SM SKC

Observaciones y pronósticos meteorológicos de más de 4000 aeropuertos (mensajes METAR y TAF).

Los puntos amarillos y rojos representan las estaciones disponibles.

Ponga el ratón en el punto deseado para ver el nombre de la estación.

Haga clic para ver las observaciones y los pronósticos meteorológicos.

Para cambiar el mapa : haga clic en los botones verdes con una cruz de color negro para hacer un zoom, en el botón verde con un guión para alejar o en las flechas verdes para mapas adyacentes.


METAR-TAF: